Airfield :
LOGIN :

Register | Disclaimer

   EN    FR    IT 

 










Legend :    VFR   Marginal VFR   IFR   Intensive IFR   Very Intensive IFR
Visi :
Ceiling :
>= 8 km
>= 3000ft
5 to 8 km
1000 to 3000 ft
1500m to 5 km
500 to 1000 ft
800 to 1500m
200 to 500 ft
< 800m
< 200 ft
Symbols :   Thunderstorms  Fog  Heavy snow  Heavy precipitations  Wind > 20 kt
SIGMETs :     Misc.  Thunderstorms  Icing  Turbulence  Mountain Waves  Volcanic Ashes







- Airport Elevation : 796 ft
- IATA code : SYT
- Download approach charts


LFLN - Saint-Yan

CURRENT METAR :
  • 171430Z AUTO 34004KT 270V030 9999 BKN044 24/14 Q1019 TEMPO 3500 SHRA SCT024 BKN040TCU

EXPIRED METARs :
  • 171400Z AUTO 35007KT 320V030 CAVOK 24/14 Q1019 TEMPO 3500 SHRA SCT022 FEW030CB BKN035TCU
  • 171330Z AUTO 32010KT 290V360 CAVOK 23/14 Q1019 TEMPO 3500 SHRA SCT022 FEW030CB BKN035TCU
  • 171300Z AUTO 30009KT 280V340 CAVOK 23/14 Q1019 TEMPO 3500 SHRA SCT022 FEW030CB BKN035TCU
  • 171230Z AUTO 30010KT 9999 FEW034/// SCT068/// BKN078/// ///TCU 23/14 Q1019 TEMPO 3500 SHRA SCT022 FEW030CB BKN035TCU
  • 171200Z AUTO 30010KT CAVOK 24/14 Q1019 TEMPO 3500 SHRA SCT022 FEW030CB BKN035TCU
  • 171130Z AUTO 33005KT 300V010 9999 ///TCU 22/15 Q1019 TEMPO 3500 SHRA SCT022 FEW030CB BKN035TCU

TAF TAF LFLN
Valid from the 17 at 12:00 until the 17 at 21:00 UTC


171100Z 1712/1721 30008G18KT 9999 SCT022 SCT034TCU
TEMPO 1712/1717 3500 SHRA SCT022 FEW030CB BKN035TCU
No reported NOTAMs for that airfield.
5 SIGMETs reported for the Marseille FIR (LFMM) :
 
Embedded thunderstorms
LFMM SIGMET 7 VALID 171100/171500 LFPW
LFMM MARSEILLE FIR/UIR EMBD TS FCST WI N4530 E00445 - N4445 E00445 - N4415 E00400 - N4445 E00315 - N4530 E00315 - N4530 E00445 TOP FL370 MOV NE 15KT NC=
Embedded thunderstorms
LFMM SIGMET 15 VALID 171400/171600 LFPW
LFMM MARSEILLE FIR/UIR EMBD TS OBS WI N4445 E00245 - N4545 E00300 - N4545 E00515 - N4345 E00515 - N4345 E00430 - N4445 E00245 TOP FL380 MOV E 10KT NC=
SIGMET 10 cancelation
LFMM SIGMET 14 VALID 171235/171400 LFPW
LFMM MARSEILLE FIR/UIR CNL SIGMET 10 171150/171400=
Embedded thunderstorms
LFMM SIGMET 13 VALID 171200/171400 LFPW
LFMM MARSEILLE FIR/UIR EMBD TS OBS WI N4500 E00245 - N4545 E00300 - N4600 E00415 - N4400 E00500 - N4400 E00400 - N4500 E00245 TOP FL380 MOV E 5KT NC=
SIGMET 7  cancelation
LFMM SIGMET 11 VALID 171150/171500 LFPW
LFMM MARSEILLE FIR/UIR CNL SIGMET 7 171100/171500=



MET'MAP, your aeronautical weather chart ! - Copyright ORBIFLY December 2007 - Disclaimer

ORBIFLY MET'MAP TEAM :

Programming & Development : Alexandra Zaïnal
Concept & Development : Baudouin d'Aumeries
Co-Development & Prog : Marc-Olivier Méhu
Technical & hardware support : Manuel Goepfert

Contact : metmap@orbifly.com




SOURCES & CREDITS :

   NOAA